Time;durP1;ratioP1;P1;durP2;ratioP2;P2;SDS_P1;SDS_P2;PMS_P1;PMS_P2;Temp;Humidity;BMP_temperature;BMP_pressure;BME280_temperature;BME280_humidity;BME280_pressure;Samples;Min_cycle;Max_cycle;Signal;HPM_P1;HPM_P2
2022/07/09 00:00:04;;;;;;;750.87;701.27;;;15.20;99.90;;;;;;5022929;28;20704;-74
2022/07/09 00:02:29;;;;;;;748.93;699.37;;;15.30;99.90;;;;;;5015219;28;20190;-74
2022/07/09 00:04:55;;;;;;;783.77;716.90;;;15.20;99.90;;;;;;5025197;28;20200;-74
2022/07/09 00:07:20;;;;;;;780.03;726.17;;;15.10;99.90;;;;;;5023221;28;20708;-72
2022/07/09 00:09:46;;;;;;;742.83;689.83;;;15.00;99.90;;;;;;5025444;28;20203;-73
2022/07/09 00:12:11;;;;;;;770.20;715.87;;;15.00;99.90;;;;;;5005978;28;20204;-71
2022/07/09 00:14:37;;;;;;;737.80;686.27;;;15.00;99.90;;;;;;5023625;28;20223;-71
2022/07/09 00:17:02;;;;;;;748.83;693.50;;;14.80;99.90;;;;;;5017676;28;20692;-71
2022/07/09 00:19:28;;;;;;;759.47;702.37;;;14.80;99.90;;;;;;5024523;28;20310;-72
2022/07/09 00:21:53;;;;;;;759.53;705.70;;;14.80;99.90;;;;;;5012658;28;20219;-73
2022/07/09 00:24:19;;;;;;;728.13;674.40;;;14.70;99.90;;;;;;5023914;28;20283;-72
2022/07/09 00:26:44;;;;;;;733.90;679.37;;;14.70;99.90;;;;;;5015978;28;20283;-72
2022/07/09 00:29:10;;;;;;;758.40;702.30;;;14.70;99.90;;;;;;5024577;28;20249;-72
2022/07/09 00:31:35;;;;;;;728.80;673.40;;;14.60;99.90;;;;;;5009514;28;20271;-72
2022/07/09 00:34:01;;;;;;;736.27;679.43;;;14.50;99.90;;;;;;5023723;28;20206;-72
2022/07/09 00:36:26;;;;;;;743.17;685.10;;;14.40;99.90;;;;;;5013629;28;20218;-71
2022/07/09 00:38:52;;;;;;;722.03;663.23;;;14.50;99.90;;;;;;5025347;28;20195;-72
2022/07/09 00:41:18;;;;;;;744.10;684.20;;;14.40;99.90;;;;;;5023025;28;20740;-72
2022/07/09 00:43:48;;;;;;;719.50;659.53;;;14.40;99.90;;;;;;5020907;28;20191;-74
2022/07/09 00:46:14;;;;;;;717.50;660.23;;;14.30;99.90;;;;;;5022852;28;20203;-73
2022/07/09 00:48:40;;;;;;;714.13;657.93;;;14.50;99.90;;;;;;5023027;28;20234;-73
2022/07/09 00:51:06;;;;;;;736.83;681.30;;;14.40;99.90;;;;;;5013119;28;21003;-73
2022/07/09 00:53:32;;;;;;;739.23;681.23;;;14.30;99.90;;;;;;5015618;28;20196;-73
2022/07/09 00:55:58;;;;;;;736.50;677.47;;;14.30;99.90;;;;;;5021204;28;20326;-74
2022/07/09 00:58:24;;;;;;;718.87;664.43;;;14.20;99.90;;;;;;5026897;28;20195;-73
2022/07/09 01:00:50;;;;;;;693.60;641.80;;;14.20;99.90;;;;;;5020094;28;20451;-73
2022/07/09 01:03:16;;;;;;;702.00;651.77;;;14.20;99.90;;;;;;5020571;28;20183;-72
2022/07/09 01:05:41;;;;;;;701.63;651.63;;;14.10;99.90;;;;;;5021114;28;20200;-74
2022/07/09 01:08:08;;;;;;;706.20;655.33;;;14.10;99.90;;;;;;5017705;28;20196;-73
2022/07/09 01:10:34;;;;;;;713.13;659.17;;;14.00;99.90;;;;;;5021733;28;20232;-73
2022/07/09 01:13:02;;;;;;;700.10;648.30;;;14.00;99.90;;;;;;5020926;28;20188;-74
2022/07/09 01:15:27;;;;;;;701.77;645.80;;;14.00;99.90;;;;;;5026212;28;20253;-73
2022/07/09 01:17:55;;;;;;;707.77;655.27;;;13.90;99.90;;;;;;5013326;28;20647;-74
2022/07/09 01:20:30;;;;;;;682.97;631.40;;;13.80;99.90;;;;;;5025603;28;20249;-76
2022/07/09 01:22:57;;;;;;;697.17;644.57;;;13.80;99.90;;;;;;5019962;28;20546;-74
2022/07/09 01:25:35;;;;;;;686.33;633.10;;;13.70;99.90;;;;;;5027118;28;20209;-75
2022/07/09 01:28:00;;;;;;;684.10;632.73;;;13.80;99.90;;;;;;5027475;28;20836;-74
2022/07/09 01:30:27;;;;;;;684.27;630.90;;;13.70;99.90;;;;;;5026389;28;20292;-74
2022/07/09 01:32:54;;;;;;;683.37;630.07;;;13.60;99.90;;;;;;5016122;28;20557;-74
2022/07/09 01:35:20;;;;;;;661.53;607.73;;;13.50;99.90;;;;;;5026940;28;20203;-74
2022/07/09 01:37:46;;;;;;;693.90;641.30;;;13.50;99.90;;;;;;5019847;28;20184;-73
2022/07/09 01:40:12;;;;;;;722.40;664.30;;;13.60;99.90;;;;;;5025199;28;20207;-73
2022/07/09 01:42:37;;;;;;;681.10;628.90;;;13.60;99.90;;;;;;5028910;28;20179;-72
2022/07/09 01:45:03;;;;;;;697.30;640.93;;;13.50;99.90;;;;;;5017467;28;20568;-72
2022/07/09 01:47:29;;;;;;;686.53;634.93;;;13.50;99.90;;;;;;5029076;28;20179;-72
2022/07/09 01:49:55;;;;;;;693.70;642.00;;;13.50;99.90;;;;;;5026542;28;20241;-71
2022/07/09 01:52:20;;;;;;;678.80;628.10;;;13.50;99.90;;;;;;5013679;28;20643;-72
2022/07/09 01:54:45;;;;;;;657.53;606.60;;;13.50;99.90;;;;;;5020392;28;20655;-71
2022/07/09 01:57:11;;;;;;;677.20;626.77;;;13.40;99.90;;;;;;5011911;28;20230;-71
2022/07/09 01:59:36;;;;;;;665.83;616.80;;;13.30;99.90;;;;;;5022531;28;20284;-72
2022/07/09 02:02:02;;;;;;;678.87;628.80;;;13.20;99.90;;;;;;5013939;28;20226;-73
2022/07/09 02:04:28;;;;;;;661.53;610.93;;;13.20;99.90;;;;;;5028035;28;20236;-74
2022/07/09 02:06:53;;;;;;;582.37;539.43;;;13.10;99.90;;;;;;5014739;28;20204;-73
2022/07/09 02:09:18;;;;;;;419.80;396.07;;;13.10;99.90;;;;;;5027769;28;20244;-74
2022/07/09 02:11:44;;;;;;;371.67;350.80;;;13.10;99.90;;;;;;5007793;28;20200;-74
2022/07/09 02:14:09;;;;;;;395.97;373.40;;;13.00;99.90;;;;;;5027002;28;20238;-73
2022/07/09 02:16:35;;;;;;;276.03;261.87;;;12.90;99.90;;;;;;5014354;28;20204;-73
2022/07/09 02:19:01;;;;;;;156.70;147.43;;;12.90;99.90;;;;;;5027837;28;20202;-73
2022/07/09 02:21:26;;;;;;;67.63;63.93;;;12.80;99.90;;;;;;5014391;28;20214;-74
2022/07/09 02:23:56;;;;;;;37.27;34.13;;;12.70;99.90;;;;;;5027501;28;20188;-74
2022/07/09 02:26:22;;;;;;;9.97;5.33;;;12.70;99.90;;;;;;5014504;28;20338;-74
2022/07/09 02:28:47;;;;;;;8.67;6.07;;;12.70;99.90;;;;;;5020526;28;20280;-74
2022/07/09 02:31:13;;;;;;;7.53;4.60;;;12.70;99.90;;;;;;5025881;28;20224;-74
2022/07/09 02:33:38;;;;;;;10.00;5.03;;;12.80;99.90;;;;;;5013023;28;20238;-74
2022/07/09 02:36:04;;;;;;;11.63;5.60;;;12.90;99.90;;;;;;5026988;28;20199;-74
2022/07/09 02:38:29;;;;;;;11.13;5.93;;;12.90;99.90;;;;;;5015637;28;20290;-73
2022/07/09 02:40:55;;;;;;;7.60;4.80;;;13.00;99.90;;;;;;5027458;28;20217;-72
2022/07/09 02:43:20;;;;;;;120.43;114.03;;;13.10;99.90;;;;;;5012792;28;20200;-72
2022/07/09 02:45:46;;;;;;;52.63;49.50;;;13.10;99.90;;;;;;5022705;28;20203;-71
2022/07/09 02:48:11;;;;;;;18.27;6.17;;;13.20;99.90;;;;;;5012983;28;20207;-68
2022/07/09 02:50:37;;;;;;;9.73;5.07;;;13.20;99.90;;;;;;5020103;28;20207;-72
2022/07/09 02:53:02;;;;;;;7.00;4.60;;;13.20;99.90;;;;;;5015235;28;20664;-71
2022/07/09 02:55:28;;;;;;;13.67;5.53;;;13.20;99.90;;;;;;5026651;28;20222;-71
2022/07/09 02:57:53;;;;;;;6.10;4.70;;;13.20;99.90;;;;;;5025029;28;20209;-70
2022/07/09 03:00:19;;;;;;;6.13;4.83;;;13.20;99.90;;;;;;5026801;28;20250;-71
2022/07/09 03:02:44;;;;;;;7.73;4.83;;;13.30;99.90;;;;;;5024386;28;20209;-71
2022/07/09 03:05:10;;;;;;;8.83;4.90;;;13.30;99.90;;;;;;5019253;28;20776;-72
2022/07/09 03:07:35;;;;;;;5.60;5.03;;;13.30;99.90;;;;;;5024779;28;20209;-72
2022/07/09 03:10:01;;;;;;;9.73;5.47;;;13.30;99.90;;;;;;5012317;28;20660;-72
2022/07/09 03:12:26;;;;;;;9.70;5.23;;;13.40;99.90;;;;;;5024512;28;20214;-72
2022/07/09 03:14:52;;;;;;;9.90;6.00;;;13.40;99.90;;;;;;5022950;28;20263;-72
2022/07/09 03:17:17;;;;;;;10.37;4.77;;;13.40;99.90;;;;;;5023733;28;20203;-72
2022/07/09 03:19:43;;;;;;;8.77;5.00;;;13.40;99.90;;;;;;5018872;28;20678;-72
2022/07/09 03:22:08;;;;;;;10.43;4.83;;;13.40;99.90;;;;;;5020021;28;20222;-73
2022/07/09 03:24:34;;;;;;;5.63;4.93;;;13.40;99.90;;;;;;5020694;28;20737;-73
2022/07/09 03:26:59;;;;;;;11.07;9.20;;;13.40;99.90;;;;;;5024244;28;20193;-73
2022/07/09 03:29:25;;;;;;;5.60;4.20;;;13.50;99.90;;;;;;5014415;28;20338;-72
2022/07/09 03:31:50;;;;;;;12.73;7.93;;;13.50;99.90;;;;;;5024134;28;20195;-73
2022/07/09 03:34:16;;;;;;;11.70;6.27;;;13.60;99.90;;;;;;5021935;28;20213;-73
2022/07/09 03:36:41;;;;;;;8.77;5.23;;;13.50;99.90;;;;;;5024046;28;20540;-73
2022/07/09 03:39:07;;;;;;;5.80;4.77;;;13.50;99.90;;;;;;5014995;28;20234;-72
2022/07/09 03:41:32;;;;;;;10.20;9.10;;;13.60;99.90;;;;;;5023553;28;20212;-72
2022/07/09 03:43:58;;;;;;;11.13;5.60;;;13.60;99.90;;;;;;5018869;28;20517;-72
2022/07/09 03:46:24;;;;;;;37.27;34.53;;;13.60;99.90;;;;;;5025734;28;20289;-73
2022/07/09 03:48:49;;;;;;;10.27;5.07;;;13.60;99.90;;;;;;5011054;28;20364;-74
2022/07/09 03:51:15;;;;;;;9.10;4.90;;;13.70;99.90;;;;;;5025752;28;20195;-72
2022/07/09 03:53:40;;;;;;;10.77;4.70;;;13.70;99.90;;;;;;5014699;28;20230;-72
2022/07/09 03:56:06;;;;;;;9.33;4.53;;;13.80;99.90;;;;;;5025250;28;20235;-72
2022/07/09 03:58:32;;;;;;;10.20;5.33;;;14.00;99.90;;;;;;5009040;28;20208;-72
2022/07/09 04:00:57;;;;;;;11.40;4.80;;;14.00;99.90;;;;;;5024782;28;20594;-72
2022/07/09 04:03:22;;;;;;;6.03;4.17;;;13.90;99.90;;;;;;5015169;28;20204;-72
2022/07/09 04:05:50;;;;;;;6.50;4.30;;;13.80;99.90;;;;;;5025145;28;20415;-72
2022/07/09 04:08:16;;;;;;;5.30;4.43;;;13.90;99.90;;;;;;5020807;28;20290;-72
2022/07/09 04:10:41;;;;;;;9.40;4.73;;;13.90;99.90;;;;;;5024871;28;20334;-71
2022/07/09 04:13:07;;;;;;;6.17;5.57;;;13.80;99.90;;;;;;5012663;28;20220;-71
2022/07/09 04:15:33;;;;;;;7.20;4.07;;;13.80;99.90;;;;;;5022580;28;20218;-72
2022/07/09 04:17:58;;;;;;;11.40;5.23;;;13.90;99.90;;;;;;5014208;28;20761;-72
2022/07/09 04:20:25;;;;;;;7.73;4.50;;;14.00;99.90;;;;;;5024519;28;20226;-72
2022/07/09 04:22:51;;;;;;;6.60;3.80;;;14.00;99.90;;;;;;5014728;28;20663;-72
2022/07/09 04:25:17;;;;;;;4.70;3.70;;;14.00;99.90;;;;;;5025053;28;20432;-72
2022/07/09 04:27:42;;;;;;;4.50;3.47;;;14.00;99.90;;;;;;5015905;28;20674;-72
2022/07/09 04:30:09;;;;;;;5.13;4.07;;;14.00;99.90;;;;;;5024678;28;20307;-73
2022/07/09 04:32:34;;;;;;;9.40;3.73;;;14.10;99.90;;;;;;5017253;28;20219;-71
2022/07/09 04:35:00;;;;;;;3.97;3.57;;;14.20;99.90;;;;;;5018224;28;20187;-72
2022/07/09 04:37:25;;;;;;;3.90;3.53;;;14.20;99.90;;;;;;5017012;28;20650;-73
2022/07/09 04:39:51;;;;;;;11.57;4.50;;;14.20;99.90;;;;;;5021642;28;20557;-73
2022/07/09 04:42:16;;;;;;;7.67;4.07;;;14.20;99.90;;;;;;5023564;28;20296;-72
2022/07/09 04:44:42;;;;;;;9.23;4.43;;;14.10;99.90;;;;;;5025727;28;20657;-73
2022/07/09 04:47:09;;;;;;;5.27;4.17;;;14.20;99.90;;;;;;5019988;28;20224;-73
2022/07/09 04:49:34;;;;;;;7.13;5.20;;;14.20;99.90;;;;;;5018109;28;21100;-73
2022/07/09 04:52:00;;;;;;;10.60;6.03;;;14.40;99.90;;;;;;5022622;28;20282;-73
2022/07/09 04:54:25;;;;;;;6.27;3.80;;;14.50;99.90;;;;;;5012828;28;20671;-72
2022/07/09 04:56:51;;;;;;;10.73;5.67;;;14.40;99.90;;;;;;5022372;28;20593;-72
2022/07/09 04:59:16;;;;;;;5.47;3.93;;;14.60;99.90;;;;;;5016322;28;20414;-71
2022/07/09 05:01:42;;;;;;;11.30;4.17;;;14.60;99.90;;;;;;5021653;28;20587;-72
2022/07/09 05:04:07;;;;;;;6.63;3.67;;;14.70;99.90;;;;;;5012435;28;20250;-72
2022/07/09 05:06:33;;;;;;;6.13;4.27;;;14.60;99.90;;;;;;5024508;28;20561;-71
2022/07/09 05:08:58;;;;;;;8.63;4.07;;;14.40;99.90;;;;;;5010113;28;20192;-72
2022/07/09 05:11:25;;;;;;;6.93;4.00;;;14.50;99.90;;;;;;5024725;28;20269;-72
2022/07/09 05:13:51;;;;;;;8.20;3.77;;;14.50;99.90;;;;;;5018951;28;20334;-72
2022/07/09 05:16:16;;;;;;;6.30;4.17;;;14.60;99.90;;;;;;5022091;28;20286;-72
2022/07/09 05:18:42;;;;;;;5.83;4.50;;;14.80;99.90;;;;;;5013970;28;20709;-72
2022/07/09 05:21:07;;;;;;;6.97;4.47;;;14.90;99.90;;;;;;5024751;28;20216;-72
2022/07/09 05:23:33;;;;;;;6.77;4.53;;;14.80;99.90;;;;;;5008922;28;20268;-72
2022/07/09 05:25:58;;;;;;;9.03;4.33;;;14.70;99.90;;;;;;5024123;28;20279;-69
2022/07/09 05:28:24;;;;;;;10.83;5.63;;;14.90;99.90;;;;;;5010127;28;20208;-70
2022/07/09 05:30:49;;;;;;;7.07;4.13;;;15.00;99.90;;;;;;5021175;28;21524;-70
2022/07/09 05:33:15;;;;;;;4.53;3.47;;;15.20;99.90;;;;;;5007351;28;20321;-70
2022/07/09 05:35:40;;;;;;;6.63;3.80;;;15.30;99.90;;;;;;5006628;28;20541;-69
2022/07/09 05:38:06;;;;;;;6.87;3.73;;;15.50;99.90;;;;;;5012682;28;20273;-71
2022/07/09 05:40:31;;;;;;;7.77;4.53;;;15.60;99.90;;;;;;5023485;28;20579;-72
2022/07/09 05:42:57;;;;;;;9.93;4.20;;;15.60;99.90;;;;;;5022066;28;20952;-72
2022/07/09 05:45:23;;;;;;;6.43;3.40;;;15.40;99.90;;;;;;5027682;28;20241;-71
2022/07/09 05:47:48;;;;;;;5.20;3.80;;;15.40;99.90;;;;;;5026199;28;20203;-71
2022/07/09 05:50:14;;;;;;;5.87;4.53;;;15.60;99.90;;;;;;5028420;28;20228;-70
2022/07/09 05:52:39;;;;;;;5.50;3.73;;;15.50;99.90;;;;;;5019225;28;20216;-72
2022/07/09 05:55:05;;;;;;;4.43;3.30;;;15.60;99.90;;;;;;5021119;28;20192;-70
2022/07/09 05:57:31;;;;;;;9.70;4.00;;;15.80;99.90;;;;;;5026972;28;20280;-71
2022/07/09 05:59:57;;;;;;;6.27;4.10;;;16.10;99.90;;;;;;5015924;28;20688;-72
2022/07/09 06:02:23;;;;;;;6.67;3.70;;;16.30;99.90;;;;;;5026346;28;20549;-73
2022/07/09 06:04:49;;;;;;;8.77;4.87;;;16.30;99.90;;;;;;5012085;28;20192;-73
2022/07/09 06:07:15;;;;;;;5.80;3.73;;;16.50;99.90;;;;;;5008309;28;20212;-70
2022/07/09 06:09:40;;;;;;;5.80;3.73;;;16.30;99.90;;;;;;5008025;28;20929;-70
2022/07/09 06:12:07;;;;;;;4.53;4.07;;;16.40;99.90;;;;;;5007191;28;20195;-72
2022/07/09 06:14:33;;;;;;;4.17;3.23;;;16.60;99.90;;;;;;5008189;28;20200;-70
2022/07/09 06:17:05;;;;;;;6.93;6.23;;;16.50;99.90;;;;;;5007175;28;20200;-71
2022/07/09 06:19:30;;;;;;;5.97;3.63;;;16.30;99.90;;;;;;5010327;28;20202;-71
2022/07/09 06:21:56;;;;;;;5.83;4.77;;;16.40;99.90;;;;;;5008122;28;20762;-72
2022/07/09 06:24:23;;;;;;;9.23;4.67;;;16.70;99.90;;;;;;5010022;28;20172;-70
2022/07/09 06:26:49;;;;;;;4.60;4.23;;;16.60;99.90;;;;;;5009028;28;20283;-70
2022/07/09 06:29:15;;;;;;;5.27;3.70;;;16.70;99.90;;;;;;5010028;28;20287;-69
2022/07/09 06:31:41;;;;;;;5.80;3.83;;;16.70;99.90;;;;;;5009754;28;20200;-80
2022/07/09 06:34:07;;;;;;;5.13;3.53;;;17.00;99.90;;;;;;5006856;28;20250;-80
2022/07/09 06:36:32;;;;;;;5.00;3.17;;;17.10;99.90;;;;;;5010933;28;20206;-79
2022/07/09 06:41:42;;;;;;;4.37;3.53;;;17.00;99.90;;;;;;5007720;28;20288;-80
2022/07/09 06:44:07;;;;;;;8.53;5.20;;;16.80;99.90;;;;;;5010040;28;20298;-82
2022/07/09 06:46:33;;;;;;;7.10;3.47;;;16.80;99.90;;;;;;5008852;28;20207;-78
2022/07/09 06:48:58;;;;;;;9.83;4.10;;;16.70;99.90;;;;;;5008780;28;20208;-79
2022/07/09 06:51:24;;;;;;;6.57;3.83;;;16.90;99.90;;;;;;5009465;28;20878;-75
2022/07/09 06:53:49;;;;;;;3.73;3.13;;;17.20;99.90;;;;;;5008441;28;20235;-81
2022/07/09 06:56:14;;;;;;;6.83;4.07;;;17.60;99.90;;;;;;5010256;28;20220;-79
2022/07/09 06:58:40;;;;;;;6.87;4.70;;;17.40;99.90;;;;;;5010829;28;20204;-79
2022/07/09 07:01:05;;;;;;;7.03;3.63;;;17.20;99.90;;;;;;5008831;28;20204;-76
2022/07/09 07:03:31;;;;;;;7.93;3.63;;;17.30;99.90;;;;;;5010535;28;20203;-77
2022/07/09 07:05:57;;;;;;;6.20;3.47;;;17.30;99.90;;;;;;5006676;28;20468;-77
2022/07/09 07:08:22;;;;;;;3.73;2.87;;;17.00;99.90;;;;;;5007563;28;20613;-78
2022/07/09 07:10:48;;;;;;;6.67;3.70;;;17.00;99.90;;;;;;5011450;28;20532;-80
2022/07/09 07:13:13;;;;;;;5.43;4.47;;;17.10;99.90;;;;;;5013783;28;20209;-79
2022/07/09 07:15:39;;;;;;;4.90;3.27;;;17.00;99.90;;;;;;5026997;28;20682;-79
2022/07/09 07:18:04;;;;;;;3.60;3.30;;;17.30;99.90;;;;;;5020076;28;20200;-81
2022/07/09 07:20:30;;;;;;;3.90;3.23;;;17.50;99.90;;;;;;5025607;28;20242;-80
2022/07/09 07:22:55;;;;;;;6.57;3.27;;;17.10;99.90;;;;;;5024475;28;20299;-79
2022/07/09 07:25:21;;;;;;;3.73;2.77;;;16.80;99.90;;;;;;5019076;28;20196;-80
2022/07/09 07:27:46;;;;;;;8.83;4.00;;;16.80;99.90;;;;;;5021403;28;20277;-80
2022/07/09 07:30:12;;;;;;;7.03;4.67;;;17.00;99.90;;;;;;5026559;28;20927;-80
2022/07/09 07:32:37;;;;;;;4.57;2.83;;;17.00;99.90;;;;;;5018132;28;20231;-79
2022/07/09 07:35:03;;;;;;;4.50;2.80;;;17.40;99.90;;;;;;5023691;28;20188;-80
2022/07/09 07:37:29;;;;;;;3.77;3.33;;;18.00;99.90;;;;;;5018679;28;20192;-81
2022/07/09 07:39:54;;;;;;;5.33;3.13;;;17.90;99.90;;;;;;5007434;28;20169;-80
2022/07/09 07:42:20;;;;;;;6.90;2.87;;;17.70;99.90;;;;;;5019744;28;20200;-81
2022/07/09 07:44:46;;;;;;;6.40;2.50;;;17.80;99.90;;;;;;5018427;28;20184;-82
2022/07/09 07:47:11;;;;;;;5.23;3.20;;;17.50;99.90;;;;;;5021475;28;20287;-78
2022/07/09 07:49:37;;;;;;;5.13;3.83;;;17.70;99.90;;;;;;5021406;28;20238;-78
2022/07/09 07:52:03;;;;;;;7.90;5.73;;;17.70;99.90;;;;;;5024555;28;20698;-77
2022/07/09 07:54:28;;;;;;;6.03;3.23;;;17.70;99.90;;;;;;5018216;28;20215;-76
2022/07/09 07:56:54;;;;;;;5.37;4.70;;;17.70;99.90;;;;;;5009285;28;20235;-76
2022/07/09 07:59:19;;;;;;;7.73;4.17;;;17.50;99.90;;;;;;5005551;28;20184;-76
2022/07/09 08:01:45;;;;;;;5.10;3.37;;;17.20;99.90;;;;;;5005660;28;20325;-75
2022/07/09 08:04:10;;;;;;;5.03;3.23;;;17.40;99.90;;;;;;5007138;28;20686;-76
2022/07/09 08:06:36;;;;;;;6.83;3.40;;;17.40;99.90;;;;;;5007911;28;20200;-79
2022/07/09 08:09:02;;;;;;;5.33;3.40;;;17.20;99.90;;;;;;5005249;28;20223;-81
2022/07/09 08:11:28;;;;;;;7.03;3.77;;;17.40;99.90;;;;;;5007856;28;20196;-76
2022/07/09 08:13:54;;;;;;;3.23;2.73;;;17.50;99.90;;;;;;5008215;28;20705;-76
2022/07/09 08:16:19;;;;;;;5.20;3.30;;;17.50;99.90;;;;;;5016338;28;20196;-76
2022/07/09 08:18:46;;;;;;;3.20;2.90;;;17.50;99.90;;;;;;5014068;28;20220;-77
2022/07/09 08:21:11;;;;;;;8.33;4.10;;;17.70;99.90;;;;;;5008639;28;20220;-78
2022/07/09 08:23:51;;;;;;;10.87;4.03;;;17.70;99.90;;;;;;5006320;28;20520;-78
2022/07/09 08:26:21;;;;;;;3.33;3.00;;;17.90;99.90;;;;;;5014100;28;20602;-78
2022/07/09 08:28:47;;;;;;;7.20;3.30;;;18.00;99.90;;;;;;5014902;28;20231;-79
2022/07/09 08:31:13;;;;;;;6.37;3.60;;;18.00;99.90;;;;;;5016481;28;20200;-79
2022/07/09 08:33:38;;;;;;;5.67;3.70;;;18.00;99.90;;;;;;5013162;28;20238;-80
2022/07/09 08:36:04;;;;;;;3.57;3.27;;;18.00;99.90;;;;;;5016272;28;20287;-79
2022/07/09 08:38:31;;;;;;;6.07;3.77;;;18.20;99.90;;;;;;5014374;28;20866;-81
2022/07/09 08:40:59;;;;;;;7.50;4.30;;;18.40;99.90;;;;;;5015639;28;20211;-79
2022/07/09 08:43:26;;;;;;;5.70;3.57;;;18.20;99.90;;;;;;5016786;28;20245;-79
2022/07/09 08:45:56;;;;;;;7.50;3.03;;;18.30;99.90;;;;;;5015593;28;20188;-79
2022/07/09 08:48:22;;;;;;;3.53;3.10;;;18.50;99.90;;;;;;5013398;28;20212;-76
2022/07/09 08:50:48;;;;;;;6.30;3.60;;;18.70;99.90;;;;;;5014331;28;20227;-77
2022/07/09 08:53:17;;;;;;;4.43;3.40;;;18.90;99.90;;;;;;5011573;28;20196;-77
2022/07/09 08:55:44;;;;;;;5.10;3.33;;;18.50;99.90;;;;;;5024923;28;20270;-79
2022/07/09 08:58:12;;;;;;;4.53;3.47;;;18.70;99.90;;;;;;5022825;28;20234;-80
2022/07/09 09:00:38;;;;;;;5.37;3.83;;;18.70;99.90;;;;;;5018727;28;20215;-81
2022/07/09 09:03:05;;;;;;;5.83;3.50;;;18.50;99.90;;;;;;5015000;28;20201;-81
2022/07/09 09:05:30;;;;;;;6.33;4.30;;;18.30;99.90;;;;;;5012380;28;20193;-82
2022/07/09 09:07:56;;;;;;;8.00;4.17;;;18.10;99.90;;;;;;5006459;28;20207;-81
2022/07/09 09:10:22;;;;;;;6.93;3.77;;;18.00;99.90;;;;;;5013563;28;20196;-79
2022/07/09 09:12:48;;;;;;;7.10;4.10;;;17.70;99.90;;;;;;5023432;28;20203;-80
2022/07/09 09:15:18;;;;;;;8.67;4.50;;;17.80;99.90;;;;;;5013638;28;20674;-80
2022/07/09 09:17:45;;;;;;;7.30;4.17;;;17.50;99.90;;;;;;5015749;28;20570;-81
2022/07/09 09:20:12;;;;;;;7.00;5.13;;;17.40;99.90;;;;;;5027549;28;20912;-76
2022/07/09 09:22:45;;;;;;;4.90;3.67;;;17.60;99.90;;;;;;5018774;28;20685;-83
2022/07/09 09:25:18;;;;;;;7.70;5.83;;;17.30;99.90;;;;;;5023463;28;20279;-75
2022/07/09 09:27:54;;;;;;;7.77;3.97;;;17.00;99.90;;;;;;5021913;28;20241;-88
2022/07/09 09:30:21;;;;;;;11.80;5.00;;;16.60;99.90;;;;;;5032217;28;20199;-87
2022/07/09 09:33:03;;;;;;;5.23;4.57;;;16.20;99.90;;;;;;5030101;28;20273;-78
2022/07/09 09:35:32;;;;;;;5.90;5.30;;;15.90;99.90;;;;;;5017492;28;20196;-85
2022/07/09 09:37:58;;;;;;;6.53;4.97;;;15.90;99.90;;;;;;5028276;28;20207;-84
2022/07/09 09:40:24;;;;;;;7.83;6.17;;;16.00;99.90;;;;;;5014412;28;20670;-87
2022/07/09 09:42:49;;;;;;;6.27;5.37;;;16.10;99.90;;;;;;5028937;28;20279;-77
2022/07/09 09:45:16;;;;;;;9.10;5.57;;;16.10;99.90;;;;;;5018913;28;20187;-86
2022/07/09 09:47:47;;;;;;;6.50;5.67;;;16.30;99.90;;;;;;5019589;28;20199;-88
2022/07/09 09:50:16;;;;;;;9.80;7.33;;;16.30;99.90;;;;;;5017712;28;20258;-87
2022/07/09 09:52:45;;;;;;;7.47;5.53;;;16.30;99.90;;;;;;5024679;28;20195;-89
2022/07/09 09:55:12;;;;;;;7.50;6.07;;;16.40;99.90;;;;;;5012722;28;20208;-89
2022/07/09 09:57:39;;;;;;;8.47;5.83;;;16.50;99.90;;;;;;5012242;28;20202;-86
2022/07/09 10:00:06;;;;;;;10.53;5.97;;;17.10;99.90;;;;;;5009734;28;20187;-82
2022/07/09 10:02:32;;;;;;;12.87;8.63;;;17.60;99.90;;;;;;5010647;28;20192;-85
2022/07/09 10:04:59;;;;;;;6.33;5.10;;;17.90;99.90;;;;;;5011978;28;20176;-79
2022/07/09 10:07:25;;;;;;;12.50;8.07;;;18.10;99.90;;;;;;5018608;28;20288;-82
2022/07/09 10:09:58;;;;;;;8.80;4.90;;;18.60;99.90;;;;;;5010152;28;20268;-81
2022/07/09 10:12:34;;;;;;;11.10;8.07;;;19.10;99.90;;;;;;5010539;28;20255;-83
2022/07/09 10:14:59;;;;;;;12.17;4.97;;;19.10;99.90;;;;;;5014109;28;20534;-75
2022/07/09 10:17:26;;;;;;;13.13;7.80;;;19.10;99.90;;;;;;5026453;28;20266;-85
2022/07/09 10:19:56;;;;;;;6.27;4.53;;;18.80;99.90;;;;;;5022841;28;20531;-81
2022/07/09 10:22:34;;;;;;;14.30;8.77;;;18.80;99.90;;;;;;5010087;28;20240;-87
2022/07/09 10:25:00;;;;;;;7.27;4.73;;;19.00;99.90;;;;;;5013947;28;20168;-84
2022/07/09 10:27:26;;;;;;;8.67;6.63;;;19.40;99.90;;;;;;5019590;28;20741;-92
2022/07/09 10:29:59;;;;;;;4.13;3.37;;;19.50;99.90;;;;;;5021426;28;20188;-91
2022/07/09 10:32:29;;;;;;;8.67;6.63;;;20.10;99.90;;;;;;5044314;28;20187;-90
2022/07/09 10:35:00;;;;;;;4.47;3.07;;;20.20;99.90;;;;;;5029873;28;20285;-90
2022/07/09 10:37:40;;;;;;;11.90;6.77;;;19.90;99.90;;;;;;5033628;28;20212;-88
2022/07/09 10:40:11;;;;;;;6.13;3.57;;;19.50;99.90;;;;;;5031958;28;20188;-86
2022/07/09 10:42:37;;;;;;;3.93;3.47;;;19.80;99.90;;;;;;5027206;28;20197;-88
2022/07/09 10:45:14;;;;;;;5.60;3.23;;;20.00;99.90;;;;;;5012189;28;20185;-88
2022/07/09 10:47:40;;;;;;;4.30;2.70;;;20.20;99.90;;;;;;5010916;28;20203;-89
2022/07/09 10:50:05;;;;;;;7.97;2.90;;;20.50;99.90;;;;;;5018856;28;20200;-89
2022/07/09 10:52:41;;;;;;;8.03;6.50;;;20.70;99.90;;;;;;5029426;28;20551;-88
2022/07/09 10:55:09;;;;;;;7.40;4.07;;;20.30;99.90;;;;;;5012899;28;20195;-87
2022/07/09 10:57:35;;;;;;;13.27;8.87;;;20.40;99.90;;;;;;5025371;28;20270;-84
2022/07/09 11:00:00;;;;;;;4.60;3.00;;;20.70;99.90;;;;;;5011278;28;20185;-81
2022/07/09 11:02:26;;;;;;;7.60;5.77;;;20.70;99.90;;;;;;5009087;28;20218;-88
2022/07/09 11:04:53;;;;;;;4.50;2.87;;;20.60;99.90;;;;;;5027808;28;20177;-86
2022/07/09 11:07:23;;;;;;;4.73;3.47;;;21.60;99.90;;;;;;5018714;28;20556;-82
2022/07/09 11:09:50;;;;;;;7.60;3.83;;;21.40;99.90;;;;;;5011417;28;20236;-83
2022/07/09 11:12:17;;;;;;;4.57;2.93;;;21.30;99.90;;;;;;5020353;28;20205;-82
2022/07/09 11:14:44;;;;;;;5.20;3.37;;;21.80;99.90;;;;;;4992967;28;20193;-84
2022/07/09 11:17:14;;;;;;;3.47;2.30;;;22.30;99.90;;;;;;5033245;28;20602;-87
2022/07/09 11:19:40;;;;;;;4.87;3.23;;;22.80;99.30;;;;;;5030101;28;20202;-84
2022/07/09 11:22:05;;;;;;;2.80;2.00;;;21.60;99.90;;;;;;5039258;28;20307;-85
2022/07/09 11:24:31;;;;;;;3.83;2.60;;;21.70;99.90;;;;;;5030468;28;20219;-84
2022/07/09 11:27:02;;;;;;;5.50;2.63;;;22.70;99.80;;;;;;5050907;28;20183;-86
2022/07/09 11:29:28;;;;;;;3.90;2.80;;;23.10;98.20;;;;;;5033255;28;20237;-85
2022/07/09 11:31:54;;;;;;;3.03;2.73;;;23.30;97.50;;;;;;5046823;28;20196;-85
2022/07/09 11:34:19;;;;;;;5.70;2.93;;;22.80;97.40;;;;;;5049282;28;20289;-83
2022/07/09 11:36:50;;;;;;;4.00;2.60;;;22.70;98.00;;;;;;5053842;28;20183;-85
2022/07/09 11:39:33;;;;;;;3.80;2.63;;;22.30;98.20;;;;;;5026462;28;20215;-83
2022/07/09 11:42:00;;;;;;;4.10;2.60;;;22.30;98.20;;;;;;5028673;28;20281;-84
2022/07/09 11:44:33;;;;;;;5.27;2.80;;;21.60;99.40;;;;;;5039959;28;20302;-85
2022/07/09 11:47:03;;;;;;;3.63;2.70;;;21.10;99.30;;;;;;5050271;28;20195;-85
2022/07/09 11:49:40;;;;;;;5.13;2.90;;;21.10;99.90;;;;;;5043680;28;20257;-84
2022/07/09 11:52:17;;;;;;;4.43;2.87;;;20.70;99.90;;;;;;5012915;28;20188;-85
2022/07/09 11:55:00;;;;;;;5.97;3.57;;;20.50;99.90;;;;;;5044499;28;20201;-83
2022/07/09 11:57:27;;;;;;;9.50;7.00;;;20.60;99.90;;;;;;5045137;28;20604;-83
2022/07/09 11:59:52;;;;;;;3.87;2.90;;;21.30;99.90;;;;;;5041253;28;20206;-83
2022/07/09 12:02:33;;;;;;;4.63;3.67;;;21.50;99.90;;;;;;5043701;28;20261;-86
2022/07/09 12:05:00;;;;;;;3.67;2.70;;;21.30;99.50;;;;;;5034942;28;20227;-84
2022/07/09 12:07:26;;;;;;;10.17;7.43;;;21.40;99.20;;;;;;5047319;28;20206;-84
2022/07/09 12:10:00;;;;;;;3.07;2.73;;;21.40;99.30;;;;;;5050545;28;20152;-84
2022/07/09 12:12:26;;;;;;;14.50;8.17;;;21.40;99.40;;;;;;5044350;28;20190;-85
2022/07/09 12:14:52;;;;;;;5.50;3.97;;;21.10;99.40;;;;;;5046547;28;20178;-85
2022/07/09 12:17:19;;;;;;;4.57;2.90;;;20.70;99.90;;;;;;5043638;28;20644;-82
2022/07/09 12:19:44;;;;;;;3.93;2.83;;;21.00;99.90;;;;;;5044527;28;20179;-86
2022/07/09 12:22:11;;;;;;;3.97;2.63;;;21.10;99.90;;;;;;5018150;28;20215;-85
2022/07/09 12:24:36;;;;;;;3.37;2.57;;;20.90;99.90;;;;;;5024634;28;20209;-86
2022/07/09 12:27:02;;;;;;;3.30;3.00;;;20.70;99.90;;;;;;5034381;28;20543;-85
2022/07/09 12:29:27;;;;;;;4.90;2.77;;;20.70;99.90;;;;;;5029685;28;20202;-85
2022/07/09 12:31:53;;;;;;;3.20;2.87;;;20.60;99.90;;;;;;5033518;28;20208;-87
2022/07/09 12:34:18;;;;;;;10.20;3.93;;;20.50;99.90;;;;;;5020965;28;20216;-86
2022/07/09 12:36:43;;;;;;;6.23;4.37;;;19.40;99.90;;;;;;5028376;28;20203;-80